Time;durP1;ratioP1;P1;durP2;ratioP2;P2;SDS_P1;SDS_P2;PMS_P1;PMS_P2;Temp;Humidity;BMP_temperature;BMP_pressure;BME280_temperature;BME280_humidity;BME280_pressure;Samples;Min_cycle;Max_cycle;Signal;HPM_P1;HPM_P2
2022/07/20 00:01:25;;;;;;;17.38;13.82;;;21.60;99.90;;;;;;5047184;28;20056;-65
2022/07/20 00:03:52;;;;;;;23.25;13.10;;;21.60;99.90;;;;;;5022016;28;20049;-65
2022/07/20 00:06:19;;;;;;;20.77;13.38;;;21.50;99.90;;;;;;5015626;28;20409;-65
2022/07/20 00:11:32;;;;;;;20.92;14.30;;;21.40;99.90;;;;;;5045039;28;20049;-65
2022/07/20 00:14:01;;;;;;;19.40;13.77;;;21.40;99.90;;;;;;5046538;28;20068;-65
2022/07/20 00:16:29;;;;;;;17.70;13.73;;;21.40;99.90;;;;;;5031694;28;20080;-66
2022/07/20 00:18:56;;;;;;;21.23;14.48;;;21.40;99.90;;;;;;5041001;28;20057;-65
2022/07/20 00:21:23;;;;;;;18.83;13.57;;;21.30;99.90;;;;;;5044034;28;20064;-65
2022/07/20 00:23:50;;;;;;;20.42;15.18;;;21.30;99.90;;;;;;5038761;28;20049;-65
2022/07/20 00:26:17;;;;;;;19.30;14.20;;;21.30;99.90;;;;;;5051859;28;20602;-65
2022/07/20 00:28:44;;;;;;;18.77;13.68;;;21.20;99.90;;;;;;5012728;28;20058;-65
2022/07/20 00:31:12;;;;;;;18.50;13.73;;;21.20;99.90;;;;;;5034681;28;20120;-64
2022/07/20 00:33:39;;;;;;;24.27;14.95;;;21.20;99.90;;;;;;5052222;28;20057;-66
2022/07/20 00:36:07;;;;;;;22.10;14.57;;;21.20;99.90;;;;;;5055394;28;20055;-65
2022/07/20 00:38:33;;;;;;;18.45;13.82;;;21.20;99.90;;;;;;5051426;28;20362;-65
2022/07/20 00:41:01;;;;;;;20.45;13.30;;;21.20;99.90;;;;;;5036864;28;20053;-65
2022/07/20 00:43:27;;;;;;;17.02;13.68;;;21.20;99.90;;;;;;5051401;28;20042;-65
2022/07/20 00:45:54;;;;;;;17.65;12.93;;;21.20;99.90;;;;;;5038521;28;20076;-65
2022/07/20 00:48:21;;;;;;;15.60;12.50;;;21.20;99.90;;;;;;5051165;28;20061;-65
2022/07/20 00:50:48;;;;;;;16.13;13.45;;;21.10;99.90;;;;;;5051243;28;20379;-66
2022/07/20 00:53:15;;;;;;;19.00;12.75;;;21.10;99.90;;;;;;5035144;28;20433;-65
2022/07/20 00:55:45;;;;;;;19.30;12.40;;;21.00;99.90;;;;;;5022016;28;20539;-64
2022/07/20 00:58:14;;;;;;;16.52;12.32;;;21.00;99.90;;;;;;5050554;28;20128;-65
2022/07/20 01:00:40;;;;;;;15.50;11.47;;;21.10;99.90;;;;;;5035421;28;20048;-65
2022/07/20 01:03:07;;;;;;;18.95;12.63;;;21.00;99.90;;;;;;5034307;28;20140;-64
2022/07/20 01:05:34;;;;;;;16.85;11.25;;;21.00;99.90;;;;;;5036348;28;20056;-66
2022/07/20 01:08:01;;;;;;;14.90;11.60;;;21.00;99.90;;;;;;5032061;28;20083;-65
2022/07/20 01:10:28;;;;;;;14.35;11.30;;;20.90;99.90;;;;;;5017792;28;20045;-64
2022/07/20 01:12:55;;;;;;;12.43;11.05;;;20.90;99.90;;;;;;5052273;28;20489;-67
2022/07/20 01:15:22;;;;;;;17.77;11.20;;;20.90;99.90;;;;;;5053197;28;20080;-64
2022/07/20 01:17:49;;;;;;;13.73;10.88;;;20.90;99.90;;;;;;5048344;28;20059;-64
2022/07/20 01:20:17;;;;;;;14.57;11.23;;;20.90;99.90;;;;;;5034080;28;20511;-64
2022/07/20 01:22:47;;;;;;;13.02;10.80;;;20.90;99.90;;;;;;5033867;28;20041;-65
2022/07/20 01:25:14;;;;;;;15.50;11.30;;;20.90;99.90;;;;;;5034276;28;20119;-65
2022/07/20 01:27:41;;;;;;;15.68;10.68;;;20.90;99.90;;;;;;5035177;28;20041;-64
2022/07/20 01:30:09;;;;;;;13.32;11.27;;;20.90;99.90;;;;;;5050641;28;20052;-64
2022/07/20 01:32:35;;;;;;;17.48;11.45;;;20.90;99.90;;;;;;5050025;28;20045;-65
2022/07/20 01:35:03;;;;;;;16.55;11.95;;;20.90;99.90;;;;;;5050863;28;20049;-64
2022/07/20 01:37:30;;;;;;;17.13;11.27;;;20.90;99.90;;;;;;5050098;28;20049;-64
2022/07/20 01:39:57;;;;;;;13.82;11.88;;;20.90;99.90;;;;;;5034871;28;20053;-68
2022/07/20 01:42:24;;;;;;;19.27;11.82;;;20.90;99.90;;;;;;5033840;28;20075;-64
2022/07/20 01:44:51;;;;;;;19.42;11.07;;;20.80;99.90;;;;;;5049884;28;20041;-66
2022/07/20 01:47:17;;;;;;;15.88;10.65;;;20.90;99.90;;;;;;5047563;28;20045;-65
2022/07/20 01:49:44;;;;;;;14.05;10.98;;;20.80;99.90;;;;;;5050547;28;20115;-65
2022/07/20 01:52:11;;;;;;;15.13;11.40;;;20.70;99.90;;;;;;5049970;28;20501;-64
2022/07/20 01:54:38;;;;;;;19.77;11.45;;;20.60;99.90;;;;;;5054123;28;20044;-64
2022/07/20 01:57:05;;;;;;;15.30;10.90;;;20.50;99.90;;;;;;5049498;28;20049;-65
2022/07/20 01:59:32;;;;;;;13.52;9.75;;;20.40;99.90;;;;;;5049401;28;20160;-65
2022/07/20 02:01:59;;;;;;;15.68;11.15;;;20.40;99.90;;;;;;5050086;28;20056;-64
2022/07/20 02:04:26;;;;;;;13.00;9.65;;;20.40;99.90;;;;;;5053138;28;20135;-64
2022/07/20 02:06:53;;;;;;;26.17;11.73;;;20.40;99.90;;;;;;5033647;28;20099;-64
2022/07/20 02:09:24;;;;;;;19.90;11.93;;;20.40;99.90;;;;;;5050851;28;20060;-64
2022/07/20 02:11:51;;;;;;;25.98;12.05;;;20.40;99.90;;;;;;5049947;28;20421;-66
2022/07/20 02:14:18;;;;;;;15.30;10.50;;;20.30;99.90;;;;;;5054217;28;20045;-66
2022/07/20 02:16:45;;;;;;;17.58;11.20;;;20.30;99.90;;;;;;5020835;28;20136;-64
2022/07/20 02:19:12;;;;;;;17.00;11.38;;;20.20;99.90;;;;;;5049279;28;20714;-64
2022/07/20 02:21:39;;;;;;;14.40;11.38;;;20.20;99.90;;;;;;5051405;28;20128;-65
2022/07/20 02:24:06;;;;;;;16.02;10.93;;;20.20;99.90;;;;;;5048243;28;20049;-64
2022/07/20 02:26:33;;;;;;;15.95;10.95;;;20.20;99.90;;;;;;5049734;28;20583;-65
2022/07/20 02:29:00;;;;;;;21.23;11.82;;;20.20;99.90;;;;;;5049555;28;20060;-64
2022/07/20 02:31:27;;;;;;;17.98;12.63;;;20.10;99.90;;;;;;5050930;28;20049;-64
2022/07/20 02:33:59;;;;;;;18.25;11.45;;;20.00;99.90;;;;;;5049210;28;20049;-64
2022/07/20 02:36:26;;;;;;;15.25;11.40;;;19.90;99.90;;;;;;5048438;28;20455;-64
2022/07/20 02:38:53;;;;;;;17.88;11.48;;;20.00;99.90;;;;;;5031831;28;20064;-65
2022/07/20 02:41:22;;;;;;;14.50;11.27;;;19.90;99.90;;;;;;5050545;28;20053;-64
2022/07/20 02:43:49;;;;;;;17.00;11.00;;;19.90;99.90;;;;;;5032605;28;20359;-65
2022/07/20 02:46:23;;;;;;;19.38;12.95;;;19.90;99.90;;;;;;5038668;28;20076;-64
2022/07/20 02:48:50;;;;;;;20.58;12.02;;;19.90;99.90;;;;;;5051937;28;20120;-65
2022/07/20 02:51:17;;;;;;;13.65;11.05;;;20.00;99.90;;;;;;5050428;28;20037;-64
2022/07/20 02:53:44;;;;;;;21.05;12.50;;;20.00;99.90;;;;;;5050013;28;20473;-64
2022/07/20 02:56:11;;;;;;;22.70;13.88;;;20.00;99.90;;;;;;5049220;28;20103;-64
2022/07/20 02:58:38;;;;;;;19.67;11.70;;;20.10;99.90;;;;;;5051509;28;20057;-64
2022/07/20 03:01:05;;;;;;;17.10;12.20;;;20.10;99.90;;;;;;5050918;28;20045;-64
2022/07/20 03:03:32;;;;;;;21.70;14.65;;;20.10;99.90;;;;;;5049445;28;20053;-64
2022/07/20 03:06:00;;;;;;;18.40;12.60;;;20.10;99.90;;;;;;5033486;28;20056;-64
2022/07/20 03:08:27;;;;;;;18.13;12.18;;;20.20;99.90;;;;;;5052851;28;20049;-64
2022/07/20 03:10:54;;;;;;;19.33;12.00;;;20.10;99.90;;;;;;5047765;28;20075;-65
2022/07/20 03:13:21;;;;;;;22.52;12.75;;;20.10;99.90;;;;;;5052215;28;20071;-65
2022/07/20 03:15:48;;;;;;;18.17;13.75;;;20.10;99.90;;;;;;5049426;28;20045;-67
2022/07/20 03:18:15;;;;;;;24.42;14.43;;;20.10;99.90;;;;;;5050508;28;20061;-64
2022/07/20 03:20:42;;;;;;;18.50;13.20;;;20.10;99.90;;;;;;5049376;28;20511;-64
2022/07/20 03:23:09;;;;;;;20.70;12.73;;;20.10;99.90;;;;;;5049563;28;20059;-65
2022/07/20 03:25:36;;;;;;;19.55;12.65;;;20.00;99.90;;;;;;5038507;28;20071;-64
2022/07/20 03:28:02;;;;;;;25.40;14.77;;;20.00;99.90;;;;;;5050007;28;20506;-64
2022/07/20 03:30:29;;;;;;;23.65;14.32;;;20.10;99.90;;;;;;5050312;28;20053;-66
2022/07/20 03:32:56;;;;;;;18.88;13.73;;;20.10;99.90;;;;;;5032784;28;20110;-65
2022/07/20 03:35:23;;;;;;;26.65;15.18;;;20.10;99.90;;;;;;5049411;28;20045;-64
2022/07/20 03:37:50;;;;;;;20.52;14.23;;;20.10;99.90;;;;;;5029780;28;20125;-64
2022/07/20 03:40:17;;;;;;;24.83;14.63;;;20.10;99.90;;;;;;5034426;28;20473;-64
2022/07/20 03:42:44;;;;;;;21.40;14.27;;;20.20;99.90;;;;;;5050310;28;20064;-64
2022/07/20 03:45:11;;;;;;;25.58;15.38;;;20.20;99.90;;;;;;5051334;28;20497;-64
2022/07/20 03:47:38;;;;;;;19.40;14.10;;;20.20;99.90;;;;;;5047413;28;20148;-64
2022/07/20 03:50:05;;;;;;;20.40;14.07;;;20.10;99.90;;;;;;5050293;28;20041;-64
2022/07/20 03:52:32;;;;;;;18.92;13.65;;;20.20;99.90;;;;;;5049859;28;20056;-65
2022/07/20 03:55:00;;;;;;;21.92;15.10;;;20.30;99.90;;;;;;5031826;28;20148;-65
2022/07/20 03:57:27;;;;;;;19.15;13.63;;;20.30;99.90;;;;;;5053232;28;20060;-64
2022/07/20 03:59:54;;;;;;;18.88;14.23;;;20.30;99.90;;;;;;5051773;28;20045;-65
2022/07/20 04:02:21;;;;;;;23.52;14.38;;;20.30;99.90;;;;;;5053509;28;20060;-65
2022/07/20 04:04:48;;;;;;;19.00;13.90;;;20.30;99.90;;;;;;5052414;28;20045;-67
2022/07/20 04:07:14;;;;;;;22.42;14.60;;;20.30;99.90;;;;;;5052743;28;20052;-65
2022/07/20 04:09:44;;;;;;;19.88;14.38;;;20.30;99.90;;;;;;5053544;28;20400;-65
2022/07/20 04:12:19;;;;;;;22.60;15.50;;;20.20;99.90;;;;;;5052636;28;20037;-65
2022/07/20 04:14:47;;;;;;;22.63;14.98;;;20.20;99.90;;;;;;5038846;28;20484;-68
2022/07/20 04:17:14;;;;;;;24.63;14.80;;;20.10;99.90;;;;;;5036070;28;20055;-65
2022/07/20 04:19:41;;;;;;;23.27;15.23;;;20.10;99.90;;;;;;5053276;28;20056;-65
2022/07/20 04:22:08;;;;;;;20.58;14.93;;;20.10;99.90;;;;;;5052291;28;20133;-65
2022/07/20 04:24:35;;;;;;;20.02;14.90;;;20.20;99.90;;;;;;5053557;28;20067;-65
2022/07/20 04:27:02;;;;;;;20.05;16.02;;;20.10;99.90;;;;;;5052799;28;20500;-65
2022/07/20 04:29:29;;;;;;;27.35;14.93;;;20.10;99.90;;;;;;5051962;28;20349;-65
2022/07/20 04:31:56;;;;;;;22.10;15.57;;;20.20;99.90;;;;;;5053356;28;20420;-64
2022/07/20 04:34:23;;;;;;;30.48;16.88;;;20.10;99.90;;;;;;5053660;28;20045;-66
2022/07/20 04:36:50;;;;;;;21.27;15.18;;;20.10;99.90;;;;;;5053420;28;20045;-64
2022/07/20 04:39:17;;;;;;;21.13;14.35;;;20.10;99.90;;;;;;5052722;28;20488;-65
2022/07/20 04:41:44;;;;;;;21.98;17.02;;;20.10;99.90;;;;;;5053120;28;20068;-64
2022/07/20 04:44:11;;;;;;;23.45;16.60;;;20.10;99.90;;;;;;5051578;28;20064;-65
2022/07/20 04:46:38;;;;;;;24.65;16.23;;;20.10;99.90;;;;;;5050774;28;20056;-65
2022/07/20 04:49:07;;;;;;;22.77;15.45;;;20.10;99.90;;;;;;5053866;28;20045;-65
2022/07/20 04:51:35;;;;;;;21.60;14.07;;;20.10;99.90;;;;;;5051704;28;20045;-63
2022/07/20 04:54:02;;;;;;;23.38;15.38;;;20.10;99.90;;;;;;5052417;28;20056;-67
2022/07/20 04:56:29;;;;;;;17.23;15.15;;;20.20;99.90;;;;;;5051435;28;20121;-64
2022/07/20 04:58:56;;;;;;;22.48;15.73;;;20.20;99.90;;;;;;5034717;28;20076;-64
2022/07/20 05:01:23;;;;;;;20.75;16.80;;;20.20;99.90;;;;;;5053606;28;20072;-64
2022/07/20 05:03:50;;;;;;;20.80;15.10;;;20.20;99.90;;;;;;5051281;28;20085;-64
2022/07/20 05:06:17;;;;;;;21.48;16.65;;;20.20;99.90;;;;;;5034255;28;20044;-64
2022/07/20 05:08:45;;;;;;;20.00;15.18;;;20.20;99.90;;;;;;5050868;28;20041;-63
2022/07/20 05:11:12;;;;;;;20.38;15.77;;;20.20;99.90;;;;;;5052240;28;20041;-63
2022/07/20 05:13:39;;;;;;;25.88;16.65;;;20.20;99.90;;;;;;5055009;28;20076;-64
2022/07/20 05:16:07;;;;;;;23.52;16.85;;;20.20;99.90;;;;;;5017157;28;20056;-63
2022/07/20 05:18:34;;;;;;;27.88;16.55;;;20.20;99.90;;;;;;5051246;28;20049;-64
2022/07/20 05:21:01;;;;;;;21.75;16.40;;;20.30;99.90;;;;;;5052889;28;20048;-65
2022/07/20 05:23:27;;;;;;;23.17;16.15;;;20.30;99.90;;;;;;5052612;28;20445;-65
2022/07/20 05:25:55;;;;;;;19.77;15.23;;;20.30;99.90;;;;;;5035679;28;20045;-64
2022/07/20 05:28:22;;;;;;;20.52;14.73;;;20.40;99.90;;;;;;5051578;28;20057;-63
2022/07/20 05:30:49;;;;;;;18.23;15.52;;;20.40;99.90;;;;;;5034294;28;20142;-64
2022/07/20 05:33:17;;;;;;;19.98;15.65;;;20.50;99.90;;;;;;5053111;28;20300;-65
2022/07/20 05:35:44;;;;;;;22.25;15.05;;;20.50;99.90;;;;;;5052524;28;20395;-63
2022/07/20 05:38:12;;;;;;;29.92;15.13;;;20.60;99.90;;;;;;5050139;28;20120;-67
2022/07/20 05:40:39;;;;;;;20.10;14.93;;;20.70;99.90;;;;;;5049595;28;20500;-64
2022/07/20 05:43:06;;;;;;;21.02;15.45;;;20.70;99.90;;;;;;5053173;28;20044;-64
2022/07/20 05:45:33;;;;;;;20.42;14.70;;;20.70;99.90;;;;;;5050521;28;20052;-66
2022/07/20 05:48:00;;;;;;;20.77;14.93;;;20.70;99.90;;;;;;5050044;28;20094;-64
2022/07/20 05:50:27;;;;;;;24.48;14.75;;;20.80;99.90;;;;;;5054057;28;20052;-65
2022/07/20 05:52:54;;;;;;;16.52;13.30;;;20.90;99.90;;;;;;5048709;28;21019;-61
2022/07/20 05:55:21;;;;;;;24.92;20.83;;;20.90;99.90;;;;;;5061955;28;20068;-69
2022/07/20 05:57:47;;;;;;;18.23;14.60;;;20.90;99.90;;;;;;5050333;28;20060;-69
2022/07/20 06:00:15;;;;;;;21.58;14.30;;;20.90;99.90;;;;;;5052255;28;20044;-64
2022/07/20 06:02:41;;;;;;;17.65;13.07;;;21.00;99.90;;;;;;5049794;28;20064;-62
2022/07/20 06:05:09;;;;;;;19.98;13.23;;;21.10;99.90;;;;;;5054765;28;20052;-63
2022/07/20 06:07:36;;;;;;;16.88;13.57;;;21.20;99.90;;;;;;5050335;28;20056;-63
2022/07/20 06:10:11;;;;;;;20.27;13.63;;;21.10;99.90;;;;;;5050933;28;20048;-68
2022/07/20 06:12:38;;;;;;;18.95;13.15;;;21.10;99.90;;;;;;5035631;28;20053;-68
2022/07/20 06:15:05;;;;;;;19.75;12.68;;;21.10;99.90;;;;;;5050901;28;20045;-69
2022/07/20 06:17:37;;;;;;;18.80;13.70;;;21.20;99.90;;;;;;5049335;28;20500;-70
2022/07/20 06:20:09;;;;;;;22.02;13.13;;;21.20;99.90;;;;;;5036550;28;20498;-67
2022/07/20 06:22:36;;;;;;;15.88;12.45;;;21.20;99.90;;;;;;5050684;28;20049;-65
2022/07/20 06:25:04;;;;;;;17.35;12.65;;;21.30;99.90;;;;;;5050053;28;20056;-65
2022/07/20 06:27:31;;;;;;;15.13;11.17;;;21.40;99.90;;;;;;5034684;28;20063;-64
2022/07/20 06:29:59;;;;;;;17.30;12.40;;;21.50;99.90;;;;;;5033632;28;20103;-65
2022/07/20 06:32:26;;;;;;;16.90;11.77;;;21.50;99.90;;;;;;5046629;28;20048;-68
2022/07/20 06:34:54;;;;;;;20.48;11.48;;;21.50;99.90;;;;;;5050484;28;20455;-66
2022/07/20 06:37:20;;;;;;;13.88;11.77;;;21.60;99.90;;;;;;5052144;28;20052;-68
2022/07/20 06:39:47;;;;;;;15.57;12.43;;;21.60;99.90;;;;;;5050177;28;20044;-69
2022/07/20 06:42:15;;;;;;;20.98;11.68;;;21.60;99.90;;;;;;5034115;28;20045;-68
2022/07/20 06:44:42;;;;;;;20.17;12.32;;;21.60;99.90;;;;;;5050424;28;20053;-69
2022/07/20 06:47:09;;;;;;;17.05;11.93;;;21.60;99.90;;;;;;5050150;28;20044;-68
2022/07/20 06:49:37;;;;;;;18.60;12.47;;;21.70;99.90;;;;;;5051686;28;20106;-68
2022/07/20 06:52:04;;;;;;;15.77;11.18;;;21.70;99.90;;;;;;5050077;28;20076;-68
2022/07/20 06:54:32;;;;;;;14.40;11.95;;;21.70;99.90;;;;;;5017575;28;20084;-68
2022/07/20 06:56:59;;;;;;;14.85;11.40;;;21.80;99.90;;;;;;5033620;28;20053;-67
2022/07/20 06:59:26;;;;;;;17.65;10.70;;;21.70;99.90;;;;;;5049841;28;20056;-68
2022/07/20 07:01:53;;;;;;;16.00;11.32;;;21.80;99.90;;;;;;5051391;28;20060;-68
2022/07/20 07:04:21;;;;;;;15.18;12.02;;;21.70;99.90;;;;;;5051570;28;20132;-68
2022/07/20 07:06:48;;;;;;;14.63;11.48;;;21.80;99.90;;;;;;5051193;28;20044;-67
2022/07/20 07:09:15;;;;;;;19.92;11.70;;;21.90;99.90;;;;;;5033528;28;20507;-68
2022/07/20 07:11:42;;;;;;;17.33;12.05;;;22.00;99.90;;;;;;5030860;28;20072;-65
2022/07/20 07:14:09;;;;;;;14.63;11.00;;;22.20;99.90;;;;;;5061428;28;20127;-65
2022/07/20 07:16:36;;;;;;;15.95;10.45;;;22.30;99.90;;;;;;5050957;28;20055;-66
2022/07/20 07:19:03;;;;;;;14.45;10.45;;;22.40;99.90;;;;;;5050104;28;20049;-67
2022/07/20 07:21:30;;;;;;;14.77;11.30;;;22.70;99.90;;;;;;5030901;28;20674;-65
2022/07/20 07:23:58;;;;;;;13.38;9.82;;;22.90;99.90;;;;;;5015505;28;20041;-66
2022/07/20 07:26:25;;;;;;;18.33;10.50;;;23.00;99.90;;;;;;5053415;28;20090;-63
2022/07/20 07:28:52;;;;;;;14.82;9.88;;;23.10;99.90;;;;;;5051541;28;20644;-65
2022/07/20 07:31:27;;;;;;;13.13;10.20;;;23.20;99.90;;;;;;5051197;28;20053;-63
2022/07/20 07:33:54;;;;;;;13.82;9.80;;;23.20;99.90;;;;;;5055158;28;20094;-63
2022/07/20 07:36:22;;;;;;;13.27;10.45;;;23.30;99.90;;;;;;5038751;28;20056;-63
2022/07/20 07:38:49;;;;;;;13.35;9.88;;;23.30;99.90;;;;;;5037860;28;20060;-64
2022/07/20 07:41:17;;;;;;;16.27;10.00;;;23.30;99.90;;;;;;5053894;28;20045;-64
2022/07/20 07:43:45;;;;;;;17.65;11.55;;;23.40;99.90;;;;;;5055351;28;20484;-64
2022/07/20 07:46:11;;;;;;;13.98;9.30;;;23.40;99.90;;;;;;5054937;28;20049;-64
2022/07/20 07:48:39;;;;;;;14.38;9.38;;;23.50;99.90;;;;;;5059304;28;20083;-69
2022/07/20 07:51:06;;;;;;;12.70;8.73;;;23.50;99.90;;;;;;5053386;28;20064;-71
2022/07/20 07:53:33;;;;;;;15.05;10.57;;;23.60;99.90;;;;;;5055184;28;20057;-73
2022/07/20 07:56:00;;;;;;;13.13;9.25;;;23.70;99.90;;;;;;5052336;28;20053;-69
2022/07/20 07:58:27;;;;;;;14.23;9.38;;;23.80;99.90;;;;;;5051783;28;20136;-71
2022/07/20 08:00:54;;;;;;;11.45;9.88;;;23.90;99.90;;;;;;5040129;28;20049;-71
2022/07/20 08:03:22;;;;;;;17.02;9.77;;;24.00;99.90;;;;;;5054103;28;20037;-64
2022/07/20 08:05:54;;;;;;;11.82;8.95;;;24.00;99.90;;;;;;5056928;28;20056;-66
2022/07/20 08:08:21;;;;;;;13.50;9.50;;;24.10;99.90;;;;;;5064216;28;20049;-67
2022/07/20 08:10:48;;;;;;;12.48;9.45;;;24.00;99.90;;;;;;5053624;28;20048;-65
2022/07/20 08:13:15;;;;;;;13.95;9.30;;;24.10;99.90;;;;;;5052524;28;20060;-64
2022/07/20 08:15:42;;;;;;;11.30;8.45;;;24.10;99.90;;;;;;5052979;28;20052;-69
2022/07/20 08:18:17;;;;;;;11.45;8.52;;;24.20;99.90;;;;;;5056301;28;20059;-66
2022/07/20 08:20:44;;;;;;;13.48;9.18;;;24.30;99.90;;;;;;5051267;28;20056;-67
2022/07/20 08:23:11;;;;;;;13.35;9.40;;;24.30;99.90;;;;;;5036251;28;20052;-68
2022/07/20 08:25:38;;;;;;;12.85;9.05;;;24.40;99.90;;;;;;5052242;28;20053;-68
2022/07/20 08:28:16;;;;;;;12.55;9.45;;;24.50;99.90;;;;;;5051256;28;20059;-69
2022/07/20 08:30:44;;;;;;;15.30;9.48;;;24.60;99.90;;;;;;5053101;28;20060;-69
2022/07/20 08:33:21;;;;;;;12.13;9.73;;;24.60;99.90;;;;;;5051427;28;20046;-69
2022/07/20 08:35:47;;;;;;;12.63;8.75;;;24.70;99.90;;;;;;5055308;28;20057;-68
2022/07/20 08:38:14;;;;;;;13.00;8.63;;;24.90;99.90;;;;;;5053413;28;20052;-70
2022/07/20 08:40:42;;;;;;;12.57;9.18;;;25.00;99.90;;;;;;5049187;28;20060;-68
2022/07/20 08:43:13;;;;;;;11.60;9.05;;;25.10;99.90;;;;;;5054498;28;20049;-87
2022/07/20 08:45:40;;;;;;;9.98;8.27;;;25.30;99.90;;;;;;5031755;28;20075;-70
2022/07/20 08:48:10;;;;;;;12.18;8.15;;;25.30;99.90;;;;;;5039503;28;20477;-71
2022/07/20 08:50:37;;;;;;;10.35;8.20;;;25.20;99.90;;;;;;5036029;28;20492;-67
2022/07/20 08:53:04;;;;;;;11.27;7.30;;;25.20;99.90;;;;;;5033715;28;20048;-66
2022/07/20 08:55:31;;;;;;;9.07;7.15;;;25.00;99.90;;;;;;5052540;28;20052;-66
2022/07/20 08:58:01;;;;;;;8.68;7.30;;;25.00;99.90;;;;;;5053085;28;20409;-65
2022/07/20 09:00:28;;;;;;;10.20;7.63;;;25.00;99.90;;;;;;5055304;28;20049;-68
2022/07/20 09:03:03;;;;;;;13.68;7.80;;;25.00;99.90;;;;;;5033254;28;20045;-65
2022/07/20 09:05:32;;;;;;;8.45;7.57;;;25.00;99.90;;;;;;5048334;28;20049;-64
2022/07/20 09:07:59;;;;;;;12.00;6.38;;;25.00;99.90;;;;;;5035678;28;20056;-65
2022/07/20 09:10:28;;;;;;;10.73;6.00;;;25.00;99.90;;;;;;5051489;28;20055;-66
2022/07/20 09:13:05;;;;;;;8.35;6.38;;;25.20;99.90;;;;;;5051192;28;20045;-64
2022/07/20 09:15:55;;;;;;;8.20;5.88;;;25.20;99.90;;;;;;5034273;28;20060;-64
2022/07/20 09:18:29;;;;;;;7.00;5.55;;;25.10;99.90;;;;;;5053896;28;20045;-65
2022/07/20 09:21:00;;;;;;;9.88;6.40;;;25.10;99.90;;;;;;5052642;28;20558;-65
2022/07/20 09:23:33;;;;;;;6.88;5.55;;;25.10;99.90;;;;;;5055486;28;20047;-67
2022/07/20 09:26:04;;;;;;;7.53;5.18;;;25.00;99.90;;;;;;5052525;28;20052;-66
2022/07/20 09:28:45;;;;;;;8.52;5.30;;;25.00;99.90;;;;;;5041817;28;20045;-68
2022/07/20 09:31:20;;;;;;;10.02;5.75;;;25.20;99.90;;;;;;5063842;28;20045;-69
2022/07/20 09:33:55;;;;;;;8.40;4.68;;;25.30;99.90;;;;;;5052965;28;20459;-64
2022/07/20 09:36:25;;;;;;;7.13;5.13;;;25.20;99.90;;;;;;5051256;28;20048;-67
2022/07/20 09:38:52;;;;;;;10.32;4.43;;;25.20;99.90;;;;;;5034258;28;20055;-70
2022/07/20 09:41:27;;;;;;;9.73;4.60;;;25.30;99.90;;;;;;5050571;28;20212;-69
2022/07/20 09:43:56;;;;;;;8.85;4.60;;;25.20;99.90;;;;;;5049387;28;20515;-67
2022/07/20 09:46:30;;;;;;;6.10;4.45;;;25.30;99.90;;;;;;5049956;28;20052;-66
2022/07/20 09:48:59;;;;;;;6.32;4.28;;;25.40;99.90;;;;;;5034656;28;20041;-67
2022/07/20 09:51:28;;;;;;;7.32;4.30;;;25.50;99.90;;;;;;5033257;28;20049;-66
2022/07/20 09:54:04;;;;;;;8.63;4.68;;;25.50;99.90;;;;;;5034606;28;20060;-65
2022/07/20 09:56:32;;;;;;;7.80;4.25;;;25.40;99.90;;;;;;5050287;28;20053;-65
2022/07/20 09:59:00;;;;;;;8.77;5.20;;;25.40;99.90;;;;;;5037629;28;20078;-68
2022/07/20 10:01:29;;;;;;;6.40;4.38;;;25.60;99.90;;;;;;5047327;28;20046;-67
2022/07/20 10:03:58;;;;;;;8.90;4.43;;;25.70;99.90;;;;;;5032373;28;20045;-66
2022/07/20 10:06:26;;;;;;;8.63;4.18;;;25.70;99.90;;;;;;5042486;28;20056;-70
2022/07/20 10:08:59;;;;;;;7.60;4.65;;;25.80;99.90;;;;;;5050932;28;20132;-66
2022/07/20 10:11:26;;;;;;;9.00;5.30;;;25.90;99.90;;;;;;5050310;28;20045;-67
2022/07/20 10:13:55;;;;;;;6.50;4.35;;;26.00;99.90;;;;;;5050477;28;20123;-67
2022/07/20 10:16:45;;;;;;;9.73;4.20;;;26.10;99.90;;;;;;5048692;28;20041;-68
2022/07/20 10:19:13;;;;;;;10.23;3.92;;;26.20;99.90;;;;;;5052184;28;20466;-67
2022/07/20 10:21:42;;;;;;;8.75;4.30;;;26.30;99.90;;;;;;5050939;28;20107;-67
2022/07/20 10:24:15;;;;;;;5.75;4.50;;;26.50;99.90;;;;;;5033652;28;20479;-67
2022/07/20 10:26:42;;;;;;;7.05;3.75;;;26.70;99.60;;;;;;5051510;28;20045;-67
2022/07/20 10:29:09;;;;;;;7.45;3.95;;;26.70;99.40;;;;;;5049089;28;20061;-67
2022/07/20 10:31:49;;;;;;;6.10;3.70;;;26.70;99.30;;;;;;5051787;28;20511;-67
2022/07/20 10:34:35;;;;;;;6.30;5.18;;;26.70;98.20;;;;;;5049033;28;20048;-67
2022/07/20 10:37:39;;;;;;;17.38;11.07;;;26.80;98.00;;;;;;5041377;28;20045;-68
2022/07/20 10:40:17;;;;;;;9.52;5.03;;;26.90;98.50;;;;;;5050400;28;20045;-67
2022/07/20 10:43:13;;;;;;;7.47;3.13;;;27.10;98.40;;;;;;5050350;28;20389;-68
2022/07/20 10:45:41;;;;;;;8.30;3.78;;;27.30;97.30;;;;;;5037120;28;20397;-71
2022/07/20 10:48:14;;;;;;;5.32;3.80;;;27.30;96.70;;;;;;5048215;28;20053;-69
2022/07/20 10:51:09;;;;;;;6.63;3.30;;;27.40;95.60;;;;;;5051309;28;20098;-68
2022/07/20 10:53:37;;;;;;;4.55;3.88;;;27.50;95.30;;;;;;5050055;28;20056;-69
2022/07/20 10:56:08;;;;;;;7.28;4.13;;;27.50;95.10;;;;;;5042964;28;20480;-68
2022/07/20 10:58:37;;;;;;;6.93;4.63;;;27.70;95.40;;;;;;5056177;28;20048;-66
2022/07/20 11:01:08;;;;;;;5.65;3.50;;;27.90;94.00;;;;;;5041165;28;20068;-75
2022/07/20 11:03:40;;;;;;;7.38;4.50;;;28.00;93.10;;;;;;5049019;28;20048;-67
2022/07/20 11:06:12;;;;;;;7.07;3.53;;;28.10;92.20;;;;;;5044889;28;20049;-69
2022/07/20 11:08:50;;;;;;;5.93;3.90;;;28.20;92.00;;;;;;5049672;28;20052;-66
2022/07/20 11:11:20;;;;;;;7.03;3.97;;;28.30;92.20;;;;;;5042664;28;20045;-65
2022/07/20 11:13:47;;;;;;;6.15;3.63;;;28.40;91.60;;;;;;4999782;28;20731;-66
2022/07/20 11:16:16;;;;;;;7.15;3.50;;;28.30;90.70;;;;;;5033459;28;20454;-72
2022/07/20 11:18:44;;;;;;;4.88;3.60;;;28.20;90.40;;;;;;5033600;28;20161;-70
2022/07/20 11:21:12;;;;;;;8.13;4.18;;;28.10;91.20;;;;;;5033429;28;20511;-63
2022/07/20 11:23:46;;;;;;;6.43;3.65;;;28.10;91.70;;;;;;5033289;28;20053;-60
2022/07/20 11:26:14;;;;;;;5.75;3.55;;;28.10;91.20;;;;;;5032993;28;20049;-60
2022/07/20 11:28:57;;;;;;;10.98;4.30;;;28.10;91.60;;;;;;5052709;28;20404;-62
2022/07/20 11:31:26;;;;;;;8.32;3.60;;;28.10;91.70;;;;;;5047704;28;20528;-64
2022/07/20 11:33:54;;;;;;;5.60;3.17;;;28.20;92.10;;;;;;5032715;28;20422;-61
2022/07/20 11:36:26;;;;;;;9.47;3.17;;;28.20;91.90;;;;;;5052912;28;20051;-62
2022/07/20 11:39:09;;;;;;;7.35;3.20;;;28.10;92.40;;;;;;5051502;28;20499;-68
2022/07/20 11:41:41;;;;;;;;;;;28.00;92.10;;;;;;5011074;28;20099;-67
2022/07/20 11:44:14;;;;;;;8.00;3.63;;;27.70;92.30;;;;;;5027853;28;20307;-68
2022/07/20 11:46:42;;;;;;;7.75;3.70;;;27.70;92.70;;;;;;5051154;28;20056;-66
2022/07/20 11:49:15;;;;;;;9.35;4.00;;;27.90;92.80;;;;;;5050210;28;20049;-66
2022/07/20 11:52:01;;;;;;;6.45;3.50;;;28.10;92.10;;;;;;5048831;28;20072;-66
2022/07/20 11:54:29;;;;;;;7.35;3.75;;;28.40;90.90;;;;;;5052379;28;20109;-65
2022/07/20 11:56:56;;;;;;;5.85;3.50;;;28.60;90.70;;;;;;5039040;28;20056;-66
2022/07/20 11:59:24;;;;;;;9.57;3.75;;;28.70;90.60;;;;;;5032305;28;20091;-70
2022/07/20 12:01:54;;;;;;;11.25;3.70;;;28.60;90.90;;;;;;5049551;28;20063;-66
2022/07/20 12:04:21;;;;;;;6.72;4.30;;;28.30;89.60;;;;;;5034506;28;20061;-69
2022/07/20 12:06:51;;;;;;;5.63;3.35;;;28.30;90.40;;;;;;5033433;28;20439;-67
2022/07/20 12:09:20;;;;;;;7.35;3.58;;;28.50;90.60;;;;;;5049987;28;20057;-68
2022/07/20 12:12:07;;;;;;;7.15;3.58;;;28.60;90.00;;;;;;5030132;28;20050;-68
2022/07/20 12:14:41;;;;;;;8.73;3.17;;;28.60;88.90;;;;;;5031056;28;20323;-68
2022/07/20 12:17:30;;;;;;;8.23;3.35;;;28.40;89.20;;;;;;5033435;28;20507;-69
2022/07/20 12:19:58;;;;;;;5.88;2.80;;;28.30;88.90;;;;;;5035114;28;20053;-68
2022/07/20 12:22:27;;;;;;;;;;;28.30;89.20;;;;;;5057970;28;20072;-70
2022/07/20 12:24:59;;;;;;;8.30;3.35;;;28.20;90.00;;;;;;5033157;28;20027;-69
2022/07/20 12:27:27;;;;;;;6.80;3.58;;;28.20;90.00;;;;;;5053509;28;20049;-69
2022/07/20 12:29:54;;;;;;;6.43;3.60;;;28.20;88.70;;;;;;5036581;28;20092;-68
2022/07/20 12:32:33;;;;;;;10.63;4.68;;;28.10;89.50;;;;;;5012440;28;20040;-70
2022/07/20 12:35:02;;;;;;;7.40;3.57;;;27.90;88.90;;;;;;5020379;28;20499;-66
2022/07/20 12:37:48;;;;;;;;;;;28.00;90.30;;;;;;5060885;28;20063;-69
2022/07/20 12:40:44;;;;;;;8.02;3.40;;;28.10;89.50;;;;;;5035467;28;20024;-70
2022/07/20 12:43:30;;;;;;;8.52;3.40;;;28.20;89.50;;;;;;5053898;28;20064;-73
2022/07/20 12:46:01;;;;;;;8.10;3.53;;;28.30;89.70;;;;;;5052821;28;20455;-71